Main page
METAR-TAF:

METAR-TAF

Airports :

Russellville Regional Airport

Russellville, Arkansas, United States

latitude: 35-15-32N, longitude: 093-05-36W, elevation: 403 ft

Current weather observation

The report was made 1 hour and 16 minutes ago, at 21:53 UTC
Calm wind
Temperature 99°F
Humidity 42%
Pressure 29.90 in. Hg
Visibility: 10 miles
Clear sky

METAR: KRUE 242153Z AUTO 00000KT 10SM CLR 37/22 A2990 RMK AO2 SLP114 T03670217

Time: 18:09 (23:09 UTC)


TAF: missing

Weather observations and forecasts of more than 4000 airports (METAR and TAF reports).

The available stations are represented by yellow and red dots on the map.

Hover mouse over dot to see the name of the station.

Then click to see weather observations and forecasts.

To change the map : click on the green buttons with a black cross to zoom in, on the green button with a dash to zoom out, or on the green arrows for adjacent maps.


METAR-TAF: